sensor_id;sensor_type;location;lat;lon;timestamp;pressure;altitude;pressure_sealevel;temperature;humidity
38616;BME280;24370;51.986;4.666;2023-07-08T00:02:08;101764.53;;;30.31;28.79
38616;BME280;24370;51.986;4.666;2023-07-08T00:04:34;101767.22;;;30.08;28.87
38616;BME280;24370;51.986;4.666;2023-07-08T00:07:00;101760.88;;;30.32;28.82
38616;BME280;24370;51.986;4.666;2023-07-08T00:09:25;101754.13;;;30.71;28.62
38616;BME280;24370;51.986;4.666;2023-07-08T00:11:51;101751.31;;;30.27;28.48
38616;BME280;24370;51.986;4.666;2023-07-08T00:14:16;101750.09;;;30.32;28.48
38616;BME280;24370;51.986;4.666;2023-07-08T00:16:42;101758.06;;;30.22;28.73
38616;BME280;24370;51.986;4.666;2023-07-08T00:19:08;101743.75;;;30.44;28.58
38616;BME280;24370;51.986;4.666;2023-07-08T00:21:34;101746.91;;;30.38;28.69
38616;BME280;24370;51.986;4.666;2023-07-08T00:24:00;101736.84;;;30.74;27.98
38616;BME280;24370;51.986;4.666;2023-07-08T00:26:28;101747.03;;;29.67;29.75
38616;BME280;24370;51.986;4.666;2023-07-08T00:28:55;101745.16;;;29.91;29.27
38616;BME280;24370;51.986;4.666;2023-07-08T00:31:23;101745.28;;;30.01;29.41
38616;BME280;24370;51.986;4.666;2023-07-08T00:33:53;101746.13;;;30.02;28.92
38616;BME280;24370;51.986;4.666;2023-07-08T00:36:21;101747.50;;;29.60;29.77
38616;BME280;24370;51.986;4.666;2023-07-08T00:38:50;101750.22;;;29.72;29.33
38616;BME280;24370;51.986;4.666;2023-07-08T00:41:34;101741.25;;;30.41;28.63
38616;BME280;24370;51.986;4.666;2023-07-08T00:44:00;101741.25;;;29.24;29.79
38616;BME280;24370;51.986;4.666;2023-07-08T00:49:36;101739.91;;;29.66;29.84
38616;BME280;24370;51.986;4.666;2023-07-08T00:52:25;101734.09;;;29.83;28.88
38616;BME280;24370;51.986;4.666;2023-07-08T00:55:08;101732.34;;;29.71;29.07
38616;BME280;24370;51.986;4.666;2023-07-08T00:57:37;101728.63;;;30.07;28.91
38616;BME280;24370;51.986;4.666;2023-07-08T01:00:06;101723.88;;;30.56;28.37
38616;BME280;24370;51.986;4.666;2023-07-08T01:02:38;101736.84;;;30.51;28.73
38616;BME280;24370;51.986;4.666;2023-07-08T01:05:12;101728.41;;;30.10;29.22
38616;BME280;24370;51.986;4.666;2023-07-08T01:07:42;101727.66;;;30.20;28.74
38616;BME280;24370;51.986;4.666;2023-07-08T01:10:16;101722.25;;;30.76;28.41
38616;BME280;24370;51.986;4.666;2023-07-08T01:12:50;101727.41;;;30.57;29.10
38616;BME280;24370;51.986;4.666;2023-07-08T01:15:17;101725.44;;;30.25;29.09
38616;BME280;24370;51.986;4.666;2023-07-08T01:17:44;101716.63;;;30.23;28.99
38616;BME280;24370;51.986;4.666;2023-07-08T01:20:11;101717.88;;;30.19;29.42
38616;BME280;24370;51.986;4.666;2023-07-08T01:22:39;101717.72;;;30.32;29.59
38616;BME280;24370;51.986;4.666;2023-07-08T01:25:05;101719.94;;;30.26;29.07
38616;BME280;24370;51.986;4.666;2023-07-08T01:27:34;101715.91;;;30.09;29.53
38616;BME280;24370;51.986;4.666;2023-07-08T01:30:03;101716.31;;;29.81;29.50
38616;BME280;24370;51.986;4.666;2023-07-08T01:32:29;101726.72;;;29.74;30.28
38616;BME280;24370;51.986;4.666;2023-07-08T01:35:01;101711.75;;;29.58;30.72
38616;BME280;24370;51.986;4.666;2023-07-08T01:39:55;101713.13;;;29.28;30.71
38616;BME280;24370;51.986;4.666;2023-07-08T01:42:21;101711.31;;;29.76;30.09
38616;BME280;24370;51.986;4.666;2023-07-08T01:44:46;101708.53;;;30.00;29.63
38616;BME280;24370;51.986;4.666;2023-07-08T01:47:19;101704.19;;;29.75;29.67
38616;BME280;24370;51.986;4.666;2023-07-08T01:49:50;101710.88;;;30.16;29.54
38616;BME280;24370;51.986;4.666;2023-07-08T01:52:17;101704.50;;;29.94;29.76
38616;BME280;24370;51.986;4.666;2023-07-08T01:54:43;101712.16;;;29.76;30.17
38616;BME280;24370;51.986;4.666;2023-07-08T01:57:08;101710.28;;;29.54;30.12
38616;BME280;24370;51.986;4.666;2023-07-08T01:59:34;101694.94;;;30.02;29.76
38616;BME280;24370;51.986;4.666;2023-07-08T02:01:59;101694.78;;;29.34;30.63
38616;BME280;24370;51.986;4.666;2023-07-08T02:04:26;101688.03;;;29.75;30.17
38616;BME280;24370;51.986;4.666;2023-07-08T02:06:56;101687.25;;;29.50;30.53
38616;BME280;24370;51.986;4.666;2023-07-08T02:09:23;101685.81;;;29.69;30.77
38616;BME280;24370;51.986;4.666;2023-07-08T02:11:50;101689.75;;;29.76;30.98
38616;BME280;24370;51.986;4.666;2023-07-08T02:14:15;101685.06;;;29.55;31.09
38616;BME280;24370;51.986;4.666;2023-07-08T02:16:41;101680.22;;;29.12;31.30
38616;BME280;24370;51.986;4.666;2023-07-08T02:19:06;101682.06;;;29.11;31.17
38616;BME280;24370;51.986;4.666;2023-07-08T02:21:32;101681.09;;;28.64;32.26
38616;BME280;24370;51.986;4.666;2023-07-08T02:24:00;101670.50;;;28.37;32.42
38616;BME280;24370;51.986;4.666;2023-07-08T02:26:25;101666.09;;;29.21;31.30
38616;BME280;24370;51.986;4.666;2023-07-08T02:28:51;101670.88;;;28.93;31.56
38616;BME280;24370;51.986;4.666;2023-07-08T02:31:17;101663.47;;;28.84;31.77
38616;BME280;24370;51.986;4.666;2023-07-08T02:33:42;101672.31;;;29.22;31.83
38616;BME280;24370;51.986;4.666;2023-07-08T02:36:08;101668.25;;;29.40;31.12
38616;BME280;24370;51.986;4.666;2023-07-08T02:38:33;101660.75;;;29.33;31.38
38616;BME280;24370;51.986;4.666;2023-07-08T02:40:59;101671.66;;;29.07;31.80
38616;BME280;24370;51.986;4.666;2023-07-08T02:43:25;101661.25;;;28.78;31.99
38616;BME280;24370;51.986;4.666;2023-07-08T02:45:51;101664.16;;;28.99;31.75
38616;BME280;24370;51.986;4.666;2023-07-08T02:48:20;101659.91;;;29.08;31.76
38616;BME280;24370;51.986;4.666;2023-07-08T02:50:45;101666.50;;;29.04;31.83
38616;BME280;24370;51.986;4.666;2023-07-08T02:53:12;101661.78;;;29.54;31.24
38616;BME280;24370;51.986;4.666;2023-07-08T02:55:38;101653.41;;;28.75;32.28
38616;BME280;24370;51.986;4.666;2023-07-08T02:58:04;101665.63;;;29.27;32.00
38616;BME280;24370;51.986;4.666;2023-07-08T03:00:29;101662.75;;;29.42;30.65
38616;BME280;24370;51.986;4.666;2023-07-08T03:02:55;101675.94;;;29.34;30.87
38616;BME280;24370;51.986;4.666;2023-07-08T03:05:20;101667.13;;;29.32;31.02
38616;BME280;24370;51.986;4.666;2023-07-08T03:07:45;101666.13;;;28.73;32.49
38616;BME280;24370;51.986;4.666;2023-07-08T03:10:11;101662.38;;;29.11;31.76
38616;BME280;24370;51.986;4.666;2023-07-08T03:12:36;101671.16;;;29.02;31.54
38616;BME280;24370;51.986;4.666;2023-07-08T03:15:02;101656.09;;;28.75;31.95
38616;BME280;24370;51.986;4.666;2023-07-08T03:17:28;101655.13;;;28.76;32.30
38616;BME280;24370;51.986;4.666;2023-07-08T03:19:53;101660.03;;;28.82;32.53
38616;BME280;24370;51.986;4.666;2023-07-08T03:22:19;101664.72;;;29.16;32.17
38616;BME280;24370;51.986;4.666;2023-07-08T03:24:44;101663.78;;;28.92;31.97
38616;BME280;24370;51.986;4.666;2023-07-08T03:27:16;101665.78;;;29.02;32.11
38616;BME280;24370;51.986;4.666;2023-07-08T03:29:42;101676.69;;;28.63;32.28
38616;BME280;24370;51.986;4.666;2023-07-08T03:32:10;101666.84;;;28.38;32.97
38616;BME280;24370;51.986;4.666;2023-07-08T03:34:37;101682.84;;;28.39;33.30
38616;BME280;24370;51.986;4.666;2023-07-08T03:37:02;101681.91;;;28.77;33.29
38616;BME280;24370;51.986;4.666;2023-07-08T03:39:28;101682.13;;;28.99;33.14
38616;BME280;24370;51.986;4.666;2023-07-08T03:41:54;101678.03;;;29.06;32.59
38616;BME280;24370;51.986;4.666;2023-07-08T03:44:19;101684.13;;;29.08;33.38
38616;BME280;24370;51.986;4.666;2023-07-08T03:46:47;101681.44;;;28.84;33.67
38616;BME280;24370;51.986;4.666;2023-07-08T03:49:16;101685.25;;;28.81;32.60
38616;BME280;24370;51.986;4.666;2023-07-08T03:51:46;101679.38;;;28.87;32.45
38616;BME280;24370;51.986;4.666;2023-07-08T03:54:14;101680.16;;;28.89;32.38
38616;BME280;24370;51.986;4.666;2023-07-08T03:56:39;101683.16;;;28.85;32.85
38616;BME280;24370;51.986;4.666;2023-07-08T03:59:05;101691.91;;;28.75;32.73
38616;BME280;24370;51.986;4.666;2023-07-08T04:01:31;101686.16;;;28.69;32.97
38616;BME280;24370;51.986;4.666;2023-07-08T04:03:58;101681.13;;;28.88;32.79
38616;BME280;24370;51.986;4.666;2023-07-08T04:06:25;101679.28;;;28.65;32.75
38616;BME280;24370;51.986;4.666;2023-07-08T04:08:51;101672.06;;;28.89;32.88
38616;BME280;24370;51.986;4.666;2023-07-08T04:11:19;101673.19;;;28.74;32.47
38616;BME280;24370;51.986;4.666;2023-07-08T04:13:45;101681.94;;;28.02;33.64
38616;BME280;24370;51.986;4.666;2023-07-08T04:16:18;101676.56;;;28.15;33.68
38616;BME280;24370;51.986;4.666;2023-07-08T04:18:44;101676.25;;;28.56;33.31
38616;BME280;24370;51.986;4.666;2023-07-08T04:21:09;101674.16;;;28.36;33.01
38616;BME280;24370;51.986;4.666;2023-07-08T04:23:35;101677.31;;;28.67;33.25
38616;BME280;24370;51.986;4.666;2023-07-08T04:26:01;101682.84;;;28.52;33.87
38616;BME280;24370;51.986;4.666;2023-07-08T04:28:26;101674.47;;;28.81;33.93
38616;BME280;24370;51.986;4.666;2023-07-08T04:30:52;101676.69;;;29.11;33.56
38616;BME280;24370;51.986;4.666;2023-07-08T04:33:17;101693.44;;;28.67;33.50
38616;BME280;24370;51.986;4.666;2023-07-08T04:35:44;101683.13;;;28.60;33.24
38616;BME280;24370;51.986;4.666;2023-07-08T04:38:22;101690.69;;;28.42;33.36
38616;BME280;24370;51.986;4.666;2023-07-08T04:40:49;101680.81;;;28.80;32.94
38616;BME280;24370;51.986;4.666;2023-07-08T04:43:16;101684.59;;;29.02;34.12
38616;BME280;24370;51.986;4.666;2023-07-08T04:45:44;101694.09;;;29.19;32.74
38616;BME280;24370;51.986;4.666;2023-07-08T04:48:14;101697.75;;;29.18;32.66
38616;BME280;24370;51.986;4.666;2023-07-08T04:50:44;101696.72;;;29.78;31.62
38616;BME280;24370;51.986;4.666;2023-07-08T04:53:10;101703.38;;;30.08;32.01
38616;BME280;24370;51.986;4.666;2023-07-08T04:55:38;101695.44;;;30.52;31.21
38616;BME280;24370;51.986;4.666;2023-07-08T04:58:04;101696.06;;;30.88;29.86
38616;BME280;24370;51.986;4.666;2023-07-08T05:00:30;101688.41;;;31.58;28.68
38616;BME280;24370;51.986;4.666;2023-07-08T05:02:56;101695.00;;;32.18;27.91
38616;BME280;24370;51.986;4.666;2023-07-08T05:05:21;101698.44;;;31.68;28.11
38616;BME280;24370;51.986;4.666;2023-07-08T05:07:46;101687.53;;;32.91;26.92
38616;BME280;24370;51.986;4.666;2023-07-08T05:10:15;101688.00;;;32.46;27.66
38616;BME280;24370;51.986;4.666;2023-07-08T05:12:42;101690.31;;;32.60;27.32
38616;BME280;24370;51.986;4.666;2023-07-08T05:15:08;101692.53;;;32.36;27.59
38616;BME280;24370;51.986;4.666;2023-07-08T05:17:34;101684.34;;;32.16;27.64
38616;BME280;24370;51.986;4.666;2023-07-08T05:20:00;101689.03;;;30.65;29.62
38616;BME280;24370;51.986;4.666;2023-07-08T05:22:26;101692.47;;;30.67;29.87
38616;BME280;24370;51.986;4.666;2023-07-08T05:24:52;101694.97;;;30.13;31.08
38616;BME280;24370;51.986;4.666;2023-07-08T05:27:21;101699.84;;;30.42;30.94
38616;BME280;24370;51.986;4.666;2023-07-08T05:29:49;101692.97;;;30.60;30.98
38616;BME280;24370;51.986;4.666;2023-07-08T05:32:14;101689.34;;;30.83;30.83
38616;BME280;24370;51.986;4.666;2023-07-08T05:34:40;101685.28;;;30.88;30.71
38616;BME280;24370;51.986;4.666;2023-07-08T05:37:05;101680.50;;;30.25;31.01
38616;BME280;24370;51.986;4.666;2023-07-08T05:39:31;101687.47;;;30.51;31.64
38616;BME280;24370;51.986;4.666;2023-07-08T05:41:57;101685.16;;;30.01;31.65
38616;BME280;24370;51.986;4.666;2023-07-08T05:44:22;101691.25;;;30.14;31.47
38616;BME280;24370;51.986;4.666;2023-07-08T05:46:49;101689.50;;;29.68;32.18
38616;BME280;24370;51.986;4.666;2023-07-08T05:49:15;101686.81;;;29.79;32.43
38616;BME280;24370;51.986;4.666;2023-07-08T05:51:41;101686.50;;;30.18;32.37
38616;BME280;24370;51.986;4.666;2023-07-08T05:54:06;101685.88;;;30.03;32.26
38616;BME280;24370;51.986;4.666;2023-07-08T05:56:32;101682.53;;;29.76;32.38
38616;BME280;24370;51.986;4.666;2023-07-08T05:58:57;101678.13;;;30.32;32.32
38616;BME280;24370;51.986;4.666;2023-07-08T06:01:23;101688.06;;;30.32;32.01
38616;BME280;24370;51.986;4.666;2023-07-08T06:03:48;101696.75;;;30.24;31.95
38616;BME280;24370;51.986;4.666;2023-07-08T06:06:15;101695.44;;;30.07;32.12
38616;BME280;24370;51.986;4.666;2023-07-08T06:08:40;101692.78;;;29.71;33.10
38616;BME280;24370;51.986;4.666;2023-07-08T06:11:05;101687.53;;;29.81;33.42
38616;BME280;24370;51.986;4.666;2023-07-08T06:13:31;101687.09;;;30.55;31.91
38616;BME280;24370;51.986;4.666;2023-07-08T06:15:56;101692.13;;;29.92;32.44
38616;BME280;24370;51.986;4.666;2023-07-08T06:18:22;101686.28;;;29.51;33.26
38616;BME280;24370;51.986;4.666;2023-07-08T06:20:55;101682.66;;;30.66;32.06
38616;BME280;24370;51.986;4.666;2023-07-08T06:23:21;101685.22;;;31.11;31.53
38616;BME280;24370;51.986;4.666;2023-07-08T06:25:47;101683.53;;;32.76;29.46
38616;BME280;24370;51.986;4.666;2023-07-08T06:28:13;101688.25;;;33.42;27.89
38616;BME280;24370;51.986;4.666;2023-07-08T06:30:39;101679.34;;;34.45;26.05
38616;BME280;24370;51.986;4.666;2023-07-08T06:33:05;101686.88;;;34.97;25.78
38616;BME280;24370;51.986;4.666;2023-07-08T06:35:31;101681.38;;;36.55;23.75
38616;BME280;24370;51.986;4.666;2023-07-08T06:37:56;101677.53;;;36.82;23.79
38616;BME280;24370;51.986;4.666;2023-07-08T06:40:22;101690.50;;;37.05;22.80
38616;BME280;24370;51.986;4.666;2023-07-08T06:42:50;101677.06;;;38.09;22.67
38616;BME280;24370;51.986;4.666;2023-07-08T06:45:16;101683.13;;;38.27;21.76
38616;BME280;24370;51.986;4.666;2023-07-08T06:47:41;101682.75;;;39.69;21.13
38616;BME280;24370;51.986;4.666;2023-07-08T06:50:07;101688.31;;;40.58;20.19
38616;BME280;24370;51.986;4.666;2023-07-08T06:52:33;101685.66;;;40.64;20.92
38616;BME280;24370;51.986;4.666;2023-07-08T06:55:01;101689.06;;;39.85;20.56
38616;BME280;24370;51.986;4.666;2023-07-08T06:57:27;101681.84;;;40.65;20.15
38616;BME280;24370;51.986;4.666;2023-07-08T06:59:53;101681.22;;;40.12;20.18
38616;BME280;24370;51.986;4.666;2023-07-08T07:02:19;101685.25;;;41.67;18.90
38616;BME280;24370;51.986;4.666;2023-07-08T07:04:45;101691.13;;;41.93;18.59
38616;BME280;24370;51.986;4.666;2023-07-08T07:07:10;101694.13;;;41.13;18.96
38616;BME280;24370;51.986;4.666;2023-07-08T07:09:36;101694.44;;;42.30;18.01
38616;BME280;24370;51.986;4.666;2023-07-08T07:12:02;101688.28;;;43.10;18.01
38616;BME280;24370;51.986;4.666;2023-07-08T07:14:27;101684.44;;;42.70;18.12
38616;BME280;24370;51.986;4.666;2023-07-08T07:16:53;101673.66;;;43.29;17.22
38616;BME280;24370;51.986;4.666;2023-07-08T07:19:18;101674.91;;;43.60;17.53
38616;BME280;24370;51.986;4.666;2023-07-08T07:21:44;101683.69;;;44.80;16.25
38616;BME280;24370;51.986;4.666;2023-07-08T07:24:10;101685.25;;;44.62;16.28
38616;BME280;24370;51.986;4.666;2023-07-08T07:26:37;101679.75;;;44.69;16.37
38616;BME280;24370;51.986;4.666;2023-07-08T07:29:02;101688.59;;;42.46;18.23
38616;BME280;24370;51.986;4.666;2023-07-08T07:31:28;101679.38;;;43.28;17.53
38616;BME280;24370;51.986;4.666;2023-07-08T07:33:53;101674.91;;;44.19;16.80
38616;BME280;24370;51.986;4.666;2023-07-08T07:36:18;101673.63;;;44.92;15.77
38616;BME280;24370;51.986;4.666;2023-07-08T07:38:45;101665.94;;;44.37;16.49
38616;BME280;24370;51.986;4.666;2023-07-08T07:41:10;101680.25;;;44.52;16.13
38616;BME280;24370;51.986;4.666;2023-07-08T07:43:38;101672.94;;;44.39;17.19
38616;BME280;24370;51.986;4.666;2023-07-08T07:46:04;101672.63;;;45.12;15.96
38616;BME280;24370;51.986;4.666;2023-07-08T07:48:31;101665.72;;;43.93;16.71
38616;BME280;24370;51.986;4.666;2023-07-08T07:50:57;101665.97;;;44.30;16.45
38616;BME280;24370;51.986;4.666;2023-07-08T07:53:22;101662.25;;;44.82;16.97
38616;BME280;24370;51.986;4.666;2023-07-08T07:56:08;101662.97;;;44.96;15.69
38616;BME280;24370;51.986;4.666;2023-07-08T07:58:34;101663.63;;;44.66;15.88
38616;BME280;24370;51.986;4.666;2023-07-08T08:00:59;101671.50;;;45.19;16.08
38616;BME280;24370;51.986;4.666;2023-07-08T08:03:25;101680.00;;;44.86;16.35
38616;BME280;24370;51.986;4.666;2023-07-08T08:05:51;101679.66;;;45.70;15.96
38616;BME280;24370;51.986;4.666;2023-07-08T08:08:16;101678.53;;;45.59;15.63
38616;BME280;24370;51.986;4.666;2023-07-08T08:10:43;101684.81;;;45.66;15.95
38616;BME280;24370;51.986;4.666;2023-07-08T08:13:09;101684.59;;;45.86;16.52
38616;BME280;24370;51.986;4.666;2023-07-08T08:15:35;101683.59;;;45.62;15.62
38616;BME280;24370;51.986;4.666;2023-07-08T08:18:01;101689.53;;;46.64;14.99
38616;BME280;24370;51.986;4.666;2023-07-08T08:20:28;101690.88;;;46.43;14.35
38616;BME280;24370;51.986;4.666;2023-07-08T08:22:54;101688.66;;;46.63;14.64
38616;BME280;24370;51.986;4.666;2023-07-08T08:25:21;101691.81;;;46.67;14.17
38616;BME280;24370;51.986;4.666;2023-07-08T08:27:50;101694.06;;;46.28;14.89
38616;BME280;24370;51.986;4.666;2023-07-08T08:30:17;101701.88;;;46.61;15.64
38616;BME280;24370;51.986;4.666;2023-07-08T08:32:43;101694.72;;;46.42;14.71
38616;BME280;24370;51.986;4.666;2023-07-08T08:35:09;101697.97;;;45.64;15.46
38616;BME280;24370;51.986;4.666;2023-07-08T08:37:34;101691.66;;;47.39;14.28
38616;BME280;24370;51.986;4.666;2023-07-08T08:40:00;101704.28;;;46.27;15.36
38616;BME280;24370;51.986;4.666;2023-07-08T08:42:40;101703.19;;;47.13;15.19
38616;BME280;24370;51.986;4.666;2023-07-08T08:45:07;101696.81;;;47.24;15.52
38616;BME280;24370;51.986;4.666;2023-07-08T08:47:42;101695.91;;;47.83;14.30
38616;BME280;24370;51.986;4.666;2023-07-08T08:52:50;101696.16;;;46.86;13.98
38616;BME280;24370;51.986;4.666;2023-07-08T08:55:17;101690.69;;;46.07;15.27
38616;BME280;24370;51.986;4.666;2023-07-08T08:57:52;101681.50;;;46.86;14.57
38616;BME280;24370;51.986;4.666;2023-07-08T09:00:32;101683.69;;;46.23;15.25
38616;BME280;24370;51.986;4.666;2023-07-08T09:03:17;101676.19;;;46.12;15.23
38616;BME280;24370;51.986;4.666;2023-07-08T09:05:46;101685.81;;;46.39;15.50
38616;BME280;24370;51.986;4.666;2023-07-08T09:08:20;101689.19;;;46.84;14.98
38616;BME280;24370;51.986;4.666;2023-07-08T09:10:57;101695.00;;;44.71;17.27
38616;BME280;24370;51.986;4.666;2023-07-08T09:13:34;101694.75;;;46.53;16.93
38616;BME280;24370;51.986;4.666;2023-07-08T09:16:14;101695.31;;;46.44;15.53
38616;BME280;24370;51.986;4.666;2023-07-08T09:18:50;101689.22;;;47.55;15.44
38616;BME280;24370;51.986;4.666;2023-07-08T09:21:25;101702.22;;;47.19;15.13
38616;BME280;24370;51.986;4.666;2023-07-08T09:23:54;101700.63;;;46.99;14.75
38616;BME280;24370;51.986;4.666;2023-07-08T09:26:27;101696.66;;;47.66;14.70
38616;BME280;24370;51.986;4.666;2023-07-08T09:28:55;101695.22;;;45.83;16.64
38616;BME280;24370;51.986;4.666;2023-07-08T09:31:30;101698.13;;;47.33;15.63
38616;BME280;24370;51.986;4.666;2023-07-08T09:34:17;101701.75;;;47.22;14.81
38616;BME280;24370;51.986;4.666;2023-07-08T09:36:50;101696.59;;;46.11;15.55
38616;BME280;24370;51.986;4.666;2023-07-08T09:39:20;101688.84;;;47.51;14.97
38616;BME280;24370;51.986;4.666;2023-07-08T09:41:49;101703.78;;;47.27;14.53
38616;BME280;24370;51.986;4.666;2023-07-08T09:44:23;101698.25;;;47.27;15.54
38616;BME280;24370;51.986;4.666;2023-07-08T09:46:55;101695.81;;;46.95;16.17
38616;BME280;24370;51.986;4.666;2023-07-08T09:49:42;101688.34;;;45.55;16.85
38616;BME280;24370;51.986;4.666;2023-07-08T09:52:12;101690.00;;;45.56;16.70
38616;BME280;24370;51.986;4.666;2023-07-08T09:54:37;101693.84;;;46.11;15.68
38616;BME280;24370;51.986;4.666;2023-07-08T09:57:32;101678.97;;;47.67;15.41
38616;BME280;24370;51.986;4.666;2023-07-08T10:00:00;101692.41;;;46.69;16.37
38616;BME280;24370;51.986;4.666;2023-07-08T10:02:54;101686.81;;;46.99;16.08
38616;BME280;24370;51.986;4.666;2023-07-08T10:05:24;101684.50;;;46.23;15.37
38616;BME280;24370;51.986;4.666;2023-07-08T10:07:55;101685.53;;;44.86;16.66
38616;BME280;24370;51.986;4.666;2023-07-08T10:10:29;101684.47;;;44.55;17.60
38616;BME280;24370;51.986;4.666;2023-07-08T10:12:58;101677.19;;;44.35;17.47
38616;BME280;24370;51.986;4.666;2023-07-08T10:15:38;101673.72;;;44.01;17.93
38616;BME280;24370;51.986;4.666;2023-07-08T10:18:03;101678.81;;;45.69;16.96
38616;BME280;24370;51.986;4.666;2023-07-08T10:24:04;101675.75;;;44.90;17.66
38616;BME280;24370;51.986;4.666;2023-07-08T10:26:29;101675.16;;;46.55;16.06
38616;BME280;24370;51.986;4.666;2023-07-08T10:29:13;101687.69;;;46.27;16.29
38616;BME280;24370;51.986;4.666;2023-07-08T10:32:05;101690.38;;;46.88;15.79
38616;BME280;24370;51.986;4.666;2023-07-08T10:34:36;101688.09;;;46.12;15.89
38616;BME280;24370;51.986;4.666;2023-07-08T10:37:20;101689.53;;;46.33;15.81
38616;BME280;24370;51.986;4.666;2023-07-08T10:39:55;101688.41;;;46.65;16.25
38616;BME280;24370;51.986;4.666;2023-07-08T10:43:06;101698.69;;;46.46;15.61
38616;BME280;24370;51.986;4.666;2023-07-08T10:59:44;101686.03;;;45.52;16.88
38616;BME280;24370;51.986;4.666;2023-07-08T11:07:41;101684.88;;;46.46;15.46
38616;BME280;24370;51.986;4.666;2023-07-08T11:10:28;101692.06;;;46.89;16.34
38616;BME280;24370;51.986;4.666;2023-07-08T11:13:02;101687.66;;;46.46;16.46
38616;BME280;24370;51.986;4.666;2023-07-08T11:18:06;101689.88;;;45.69;17.17
38616;BME280;24370;51.986;4.666;2023-07-08T11:20:40;101689.59;;;45.96;17.07
38616;BME280;24370;51.986;4.666;2023-07-08T11:23:31;101691.72;;;46.43;16.65
38616;BME280;24370;51.986;4.666;2023-07-08T11:26:29;101684.03;;;46.45;16.24
38616;BME280;24370;51.986;4.666;2023-07-08T11:28:57;101674.44;;;47.02;15.14
38616;BME280;24370;51.986;4.666;2023-07-08T11:31:24;101673.56;;;46.78;15.59
38616;BME280;24370;51.986;4.666;2023-07-08T11:33:51;101685.13;;;46.98;15.49
38616;BME280;24370;51.986;4.666;2023-07-08T11:36:19;101678.06;;;45.99;15.84
38616;BME280;24370;51.986;4.666;2023-07-08T11:38:58;101679.38;;;47.35;15.14
38616;BME280;24370;51.986;4.666;2023-07-08T11:41:26;101673.56;;;47.61;14.57
38616;BME280;24370;51.986;4.666;2023-07-08T11:44:03;101664.00;;;47.39;14.72
38616;BME280;24370;51.986;4.666;2023-07-08T11:46:31;101663.72;;;46.39;15.77
38616;BME280;24370;51.986;4.666;2023-07-08T11:49:02;101666.56;;;46.33;15.98
38616;BME280;24370;51.986;4.666;2023-07-08T11:51:40;101668.84;;;46.24;15.65
38616;BME280;24370;51.986;4.666;2023-07-08T11:54:19;101671.53;;;46.43;14.77
38616;BME280;24370;51.986;4.666;2023-07-08T11:56:58;101668.88;;;46.66;14.94
38616;BME280;24370;51.986;4.666;2023-07-08T11:59:26;101662.56;;;45.43;16.98
38616;BME280;24370;51.986;4.666;2023-07-08T12:02:01;101658.69;;;46.18;16.13
38616;BME280;24370;51.986;4.666;2023-07-08T12:04:34;101660.09;;;46.09;15.74
38616;BME280;24370;51.986;4.666;2023-07-08T12:07:19;101657.38;;;46.20;15.95
38616;BME280;24370;51.986;4.666;2023-07-08T12:10:22;101655.13;;;45.99;15.95
38616;BME280;24370;51.986;4.666;2023-07-08T12:12:51;101651.47;;;45.68;15.93
38616;BME280;24370;51.986;4.666;2023-07-08T12:15:26;101652.31;;;46.17;15.63
38616;BME280;24370;51.986;4.666;2023-07-08T12:17:56;101646.78;;;45.87;15.07
38616;BME280;24370;51.986;4.666;2023-07-08T12:20:25;101649.75;;;46.77;15.18
38616;BME280;24370;51.986;4.666;2023-07-08T12:22:52;101656.13;;;46.04;16.11
38616;BME280;24370;51.986;4.666;2023-07-08T12:25:21;101650.59;;;46.04;15.54
38616;BME280;24370;51.986;4.666;2023-07-08T12:27:50;101651.09;;;46.13;16.00
38616;BME280;24370;51.986;4.666;2023-07-08T12:30:16;101646.19;;;47.12;15.19
38616;BME280;24370;51.986;4.666;2023-07-08T12:32:43;101640.88;;;46.98;15.21
38616;BME280;24370;51.986;4.666;2023-07-08T12:35:30;101637.63;;;46.35;16.32
38616;BME280;24370;51.986;4.666;2023-07-08T12:38:06;101630.22;;;45.87;16.22
38616;BME280;24370;51.986;4.666;2023-07-08T12:40:37;101633.31;;;46.39;16.26
38616;BME280;24370;51.986;4.666;2023-07-08T12:43:09;101630.94;;;46.55;16.29
38616;BME280;24370;51.986;4.666;2023-07-08T12:45:34;101636.19;;;45.84;16.72
38616;BME280;24370;51.986;4.666;2023-07-08T12:48:00;101627.16;;;46.07;15.88
38616;BME280;24370;51.986;4.666;2023-07-08T12:50:25;101626.00;;;45.03;17.13
38616;BME280;24370;51.986;4.666;2023-07-08T12:52:51;101634.41;;;45.15;16.81
38616;BME280;24370;51.986;4.666;2023-07-08T12:55:16;101628.31;;;45.69;16.23
38616;BME280;24370;51.986;4.666;2023-07-08T12:57:48;101626.56;;;46.05;16.16
38616;BME280;24370;51.986;4.666;2023-07-08T13:00:23;101623.47;;;45.02;16.74
38616;BME280;24370;51.986;4.666;2023-07-08T13:02:59;101634.88;;;44.55;17.18
38616;BME280;24370;51.986;4.666;2023-07-08T13:05:28;101628.53;;;45.30;17.08
38616;BME280;24370;51.986;4.666;2023-07-08T13:07:55;101632.66;;;45.95;16.38
38616;BME280;24370;51.986;4.666;2023-07-08T13:10:24;101628.34;;;45.00;15.67
38616;BME280;24370;51.986;4.666;2023-07-08T13:12:54;101621.72;;;45.51;15.44
38616;BME280;24370;51.986;4.666;2023-07-08T13:15:24;101629.75;;;45.90;15.91
38616;BME280;24370;51.986;4.666;2023-07-08T13:17:53;101618.56;;;45.66;16.26
38616;BME280;24370;51.986;4.666;2023-07-08T13:20:20;101620.72;;;45.64;15.42
38616;BME280;24370;51.986;4.666;2023-07-08T13:22:55;101626.81;;;46.34;15.63
38616;BME280;24370;51.986;4.666;2023-07-08T13:25:27;101623.75;;;45.93;15.71
38616;BME280;24370;51.986;4.666;2023-07-08T13:28:19;101620.78;;;45.76;15.32
38616;BME280;24370;51.986;4.666;2023-07-08T13:30:52;101628.28;;;45.32;15.11
38616;BME280;24370;51.986;4.666;2023-07-08T13:33:18;101613.69;;;45.99;14.34
38616;BME280;24370;51.986;4.666;2023-07-08T13:35:44;101619.38;;;46.34;15.68